createdAt,value
2023-03-17T00:02:54.398Z,71.30
2023-03-17T00:08:06.337Z,71.30
2023-03-17T00:13:14.341Z,71.30
2023-03-17T00:18:21.043Z,71.40
2023-03-17T00:23:26.572Z,71.30
2023-03-17T00:28:30.195Z,71.40
2023-03-17T00:33:37.177Z,71.30
2023-03-17T00:38:42.005Z,71.30
2023-03-17T00:43:46.144Z,71.30
2023-03-17T00:48:49.931Z,71.30
2023-03-17T00:53:54.716Z,72.10
2023-03-17T00:58:58.182Z,71.40
2023-03-17T01:04:01.907Z,71.40
2023-03-17T01:09:08.187Z,71.40
2023-03-17T01:14:13.636Z,71.30
2023-03-17T01:19:17.172Z,71.40
2023-03-17T01:24:22.048Z,71.30
2023-03-17T01:29:27.109Z,71.30
2023-03-17T01:34:30.554Z,71.40
2023-03-17T01:39:35.433Z,71.40
2023-03-17T01:45:02.378Z,71.40
2023-03-17T01:50:10.698Z,71.40
2023-03-17T01:55:19.184Z,71.40
2023-03-17T02:00:26.622Z,71.40
2023-03-17T02:05:32.969Z,71.40
2023-03-17T02:10:37.812Z,71.40
2023-03-17T02:15:44.468Z,71.30
2023-03-17T02:21:51.437Z,71.30
2023-03-17T02:26:58.449Z,71.50
2023-03-17T02:32:02.452Z,71.40
2023-03-17T02:37:09.292Z,71.40
2023-03-17T02:42:14.696Z,71.40
2023-03-17T02:47:18.816Z,71.30
2023-03-17T02:52:23.851Z,71.40
2023-03-17T02:57:27.657Z,71.40
2023-03-17T03:02:31.245Z,71.40
2023-03-17T03:07:36.399Z,71.40
2023-03-17T03:12:40.149Z,71.50
2023-03-17T03:17:43.571Z,71.50
2023-03-17T03:22:48.640Z,71.50
2023-03-17T03:27:52.231Z,71.50
2023-03-17T03:32:56.238Z,71.40
2023-03-17T03:38:01.694Z,71.50
2023-03-17T03:43:19.750Z,71.50
2023-03-17T03:48:25.584Z,71.40
2023-03-17T03:53:31.209Z,71.40
2023-03-17T03:58:34.643Z,71.50
2023-03-17T04:03:38.910Z,71.40
2023-03-17T04:08:43.930Z,71.40
2023-03-17T04:13:47.329Z,71.50
2023-03-17T04:18:51.240Z,71.40
2023-03-17T04:23:56.158Z,71.40
2023-03-17T04:28:59.783Z,71.50
2023-03-17T04:34:03.418Z,71.50
2023-03-17T04:39:08.258Z,71.50
2023-03-17T04:44:11.690Z,71.50
2023-03-17T04:49:15.124Z,71.50
2023-03-17T04:54:20.238Z,71.40
2023-03-17T04:59:23.887Z,71.50
2023-03-17T05:04:31.571Z,71.50
2023-03-17T05:09:37.183Z,71.50
2023-03-17T05:14:40.950Z,71.40
2023-03-17T05:19:45.586Z,71.40
2023-03-17T05:24:50.552Z,71.40
2023-03-17T05:29:54.160Z,71.50
2023-03-17T05:34:57.858Z,71.40
2023-03-17T05:40:03.112Z,71.50
2023-03-17T05:45:08.396Z,71.40
2023-03-17T05:50:13.944Z,71.50
2023-03-17T05:55:21.740Z,71.50
2023-03-17T06:00:25.663Z,71.50
2023-03-17T06:05:29.160Z,71.50
2023-03-17T06:10:34.740Z,71.60
2023-03-17T06:15:38.449Z,71.50
2023-03-17T06:20:41.891Z,71.50
2023-03-17T06:25:47.576Z,71.50
2023-03-17T06:30:51.417Z,71.50
2023-03-17T06:35:54.906Z,72.20
2023-03-17T06:40:59.687Z,71.50
2023-03-17T06:46:03.422Z,71.50
2023-03-17T06:51:07.899Z,71.50
2023-03-17T06:56:27.398Z,71.50
2023-03-17T07:01:33.679Z,71.50
2023-03-17T07:06:37.542Z,71.50
2023-03-17T07:11:42.862Z,71.50
2023-03-17T07:16:46.310Z,71.50
2023-03-17T07:21:49.759Z,71.50
2023-03-17T07:26:54.501Z,71.50
2023-03-17T07:31:57.912Z,71.50
2023-03-17T07:37:01.813Z,71.40
2023-03-17T07:42:07.215Z,71.50
2023-03-17T07:47:13.273Z,71.50
2023-03-17T07:52:17.075Z,71.40
2023-03-17T07:57:22.239Z,71.50
2023-03-17T08:02:26.259Z,71.40
2023-03-17T08:07:30.987Z,71.40
2023-03-17T08:12:36.543Z,71.50
2023-03-17T08:17:41.809Z,71.40
2023-03-17T08:22:45.437Z,71.40
2023-03-17T08:27:50.391Z,71.50
2023-03-17T08:32:54.736Z,71.50
2023-03-17T08:37:58.448Z,71.50
2023-03-17T08:43:03.937Z,71.50
2023-03-17T08:48:07.471Z,71.50
2023-03-17T08:53:11.032Z,71.50
2023-03-17T08:58:15.807Z,71.40
2023-03-17T09:03:20.761Z,71.40
2023-03-17T09:08:24.819Z,71.40
2023-03-17T09:13:29.930Z,71.40
2023-03-17T09:18:33.668Z,71.40
2023-03-17T09:23:37.403Z,71.30
2023-03-17T09:28:42.656Z,71.30
2023-03-17T09:33:47.385Z,71.30
2023-03-17T09:38:51.191Z,71.20
2023-03-17T09:44:06.796Z,71.30
2023-03-17T09:49:13.847Z,71.30
2023-03-17T09:54:27.662Z,71.20
2023-03-17T09:59:36.836Z,71.10
2023-03-17T10:04:42.292Z,71.10
2023-03-17T10:09:58.710Z,71.10
2023-03-17T10:15:07.764Z,71.10
2023-03-17T10:20:18.611Z,71.10
2023-03-17T10:25:26.289Z,71.10
2023-03-17T10:30:34.539Z,71.00
2023-03-17T10:35:39.561Z,71.00
2023-03-17T10:40:48.800Z,71.10
2023-03-17T10:46:04.335Z,71.10
2023-03-17T10:51:10.976Z,71.10
2023-03-17T10:56:27.180Z,71.10
2023-03-17T11:01:40.248Z,71.10
2023-03-17T11:06:52.419Z,71.10
2023-03-17T11:12:06.449Z,71.10
2023-03-17T11:17:22.850Z,71.20
2023-03-17T11:22:35.291Z,71.20
2023-03-17T11:27:48.546Z,71.20
2023-03-17T11:33:00.764Z,71.30
2023-03-17T11:38:25.977Z,71.20
2023-03-17T11:43:35.367Z,71.40
2023-03-17T11:48:51.121Z,71.30
2023-03-17T11:54:10.646Z,71.40
2023-03-17T11:59:27.425Z,71.40
2023-03-17T12:04:37.975Z,71.50
2023-03-17T12:09:47.306Z,71.60
2023-03-17T12:14:53.980Z,71.50
2023-03-17T12:20:14.832Z,71.50
2023-03-17T12:25:26.995Z,71.50
2023-03-17T12:30:41.068Z,71.50
2023-03-17T12:35:46.285Z,71.50
2023-03-17T12:41:47.606Z,71.60
2023-03-17T12:47:18.296Z,71.50
2023-03-17T12:52:48.517Z,71.60
2023-03-17T12:58:03.464Z,71.60
2023-03-17T13:03:23.124Z,71.80
2023-03-17T13:08:33.759Z,71.70
2023-03-17T13:13:48.149Z,71.70
2023-03-17T13:18:53.256Z,71.70
2023-03-17T13:24:47.170Z,71.70
2023-03-17T13:29:51.343Z,71.70
2023-03-17T13:35:13.424Z,71.80
2023-03-17T13:40:23.218Z,71.80
2023-03-17T13:45:41.767Z,71.90
2023-03-17T13:50:46.626Z,71.80
2023-03-17T14:01:24.860Z,71.80
2023-03-17T14:06:31.332Z,71.80
2023-03-17T14:11:39.162Z,71.80
2023-03-17T14:16:55.313Z,71.80
2023-03-17T14:22:05.322Z,71.80
2023-03-17T14:27:14.837Z,71.80
2023-03-17T14:32:23.092Z,71.80
2023-03-17T14:37:28.884Z,71.80
2023-03-17T14:42:33.379Z,71.80
2023-03-17T14:47:43.268Z,71.90
2023-03-17T14:52:46.821Z,71.80
2023-03-17T14:57:53.450Z,71.80
2023-03-17T15:03:02.199Z,71.80
2023-03-17T15:08:48.093Z,71.80
2023-03-17T15:13:56.981Z,71.70
2023-03-17T15:19:09.869Z,71.80
2023-03-17T15:24:34.258Z,71.80
2023-03-17T15:29:37.712Z,71.80
2023-03-17T15:34:42.666Z,71.90
2023-03-17T15:39:46.917Z,71.90
2023-03-17T15:44:50.340Z,71.90
2023-03-17T15:49:59.971Z,71.90
2023-03-17T15:55:05.107Z,71.90
2023-03-17T16:00:17.220Z,72.00
2023-03-17T16:05:26.541Z,71.90
2023-03-17T16:10:33.291Z,71.90
2023-03-17T16:15:41.158Z,72.00
2023-03-17T16:20:48.644Z,72.10
2023-03-17T16:25:53.991Z,72.10
2023-03-17T16:31:01.660Z,72.20
2023-03-17T16:36:07.755Z,72.10
2023-03-17T16:41:20.470Z,72.10
2023-03-17T16:46:24.450Z,72.10
2023-03-17T16:51:29.297Z,72.30
2023-03-17T16:56:32.768Z,72.10
2023-03-17T17:01:36.341Z,72.20
2023-03-17T17:06:41.153Z,72.10
2023-03-17T17:11:44.573Z,72.20
2023-03-17T17:16:48.000Z,72.20
2023-03-17T17:21:52.782Z,72.20
2023-03-17T17:26:56.196Z,72.40
2023-03-17T17:31:59.675Z,72.30
2023-03-17T17:37:04.540Z,72.30
2023-03-17T17:42:11.545Z,72.30
2023-03-17T17:47:16.262Z,73.10
2023-03-17T17:52:21.084Z,72.30
2023-03-17T17:57:24.534Z,72.30
2023-03-17T18:02:27.912Z,72.30
2023-03-17T18:07:32.967Z,72.40
2023-03-17T18:12:36.425Z,72.40
2023-03-17T18:17:39.918Z,72.40
2023-03-17T18:22:45.573Z,72.40
2023-03-17T18:27:49.645Z,72.40
2023-03-17T18:32:58.230Z,72.40
2023-03-17T18:38:03.355Z,72.40
2023-03-17T18:43:06.760Z,72.40
2023-03-17T18:48:10.233Z,72.40
2023-03-17T18:53:15.139Z,72.40
2023-03-17T18:58:18.589Z,72.40
2023-03-17T19:03:22.290Z,72.40
2023-03-17T19:08:27.193Z,72.40
2023-03-17T19:13:30.595Z,72.40
2023-03-17T19:18:34.162Z,72.40
2023-03-17T19:23:39.272Z,72.50
2023-03-17T19:28:42.880Z,72.50
2023-03-17T19:33:46.263Z,72.50
2023-03-17T19:38:51.756Z,72.50
2023-03-17T19:43:55.148Z,72.50
2023-03-17T19:48:58.557Z,72.50
2023-03-17T19:54:05.210Z,72.50
2023-03-17T19:59:09.379Z,72.60
2023-03-17T20:04:17.547Z,72.60
2023-03-17T20:09:24.620Z,72.60
2023-03-17T20:14:28.075Z,72.60
2023-03-17T20:19:31.608Z,72.60
2023-03-17T20:24:38.287Z,72.60
2023-03-17T20:29:42.834Z,72.70
2023-03-17T20:34:46.687Z,72.60
2023-03-17T20:39:52.685Z,72.60
2023-03-17T20:44:56.775Z,72.70
2023-03-17T20:50:00.590Z,72.60
2023-03-17T20:55:06.744Z,72.70
2023-03-17T21:00:17.845Z,72.80
2023-03-17T21:05:25.245Z,72.70
2023-03-17T21:10:30.559Z,72.80
2023-03-17T21:15:34.390Z,72.80
2023-03-17T21:20:37.842Z,72.80
2023-03-17T21:25:43.286Z,72.80
2023-03-17T21:30:46.993Z,72.80
2023-03-17T21:35:50.594Z,72.80
2023-03-17T21:40:55.635Z,72.80
2023-03-17T21:45:59.153Z,72.90
2023-03-17T21:51:02.604Z,72.90
2023-03-17T21:56:08.700Z,72.90
2023-03-17T22:01:14.324Z,72.90
2023-03-17T22:06:19.216Z,73.00
2023-03-17T22:11:24.158Z,73.00
2023-03-17T22:16:27.730Z,73.00
2023-03-17T22:21:31.756Z,73.00
2023-03-17T22:26:36.923Z,73.00
2023-03-17T22:31:41.181Z,73.10
2023-03-17T22:36:44.751Z,73.10
2023-03-17T22:41:49.554Z,73.10
2023-03-17T22:46:52.982Z,73.10
2023-03-17T22:51:56.382Z,73.10
2023-03-17T22:57:01.305Z,73.10
2023-03-17T23:02:04.841Z,73.10
2023-03-17T23:07:08.439Z,73.20
2023-03-17T23:12:14.087Z,73.20
2023-03-17T23:17:17.474Z,73.30
2023-03-17T23:22:21.407Z,73.20
2023-03-17T23:27:26.252Z,73.20
2023-03-17T23:32:29.728Z,73.30
2023-03-17T23:37:33.320Z,73.30
2023-03-17T23:42:38.383Z,73.30
2023-03-17T23:47:53.314Z,73.30
2023-03-17T23:52:56.997Z,73.30
2023-03-17T23:58:02.638Z,73.30
